sensor_id;sensor_type;location;lat;lon;timestamp;temperature;humidity
70726;DHT22;58304;53.104;6.022;2022-11-30T00:00:33;2.90;99.90
70726;DHT22;58304;53.104;6.022;2022-11-30T00:02:59;2.80;99.90
70726;DHT22;58304;53.104;6.022;2022-11-30T00:05:24;2.80;99.90
70726;DHT22;58304;53.104;6.022;2022-11-30T00:07:50;2.70;99.90
70726;DHT22;58304;53.104;6.022;2022-11-30T00:10:16;2.70;99.90
70726;DHT22;58304;53.104;6.022;2022-11-30T00:12:42;2.80;99.90
70726;DHT22;58304;53.104;6.022;2022-11-30T00:15:12;2.80;99.90
70726;DHT22;58304;53.104;6.022;2022-11-30T00:17:43;2.80;99.90
70726;DHT22;58304;53.104;6.022;2022-11-30T00:20:09;2.80;99.90
70726;DHT22;58304;53.104;6.022;2022-11-30T00:22:35;2.70;99.90
70726;DHT22;58304;53.104;6.022;2022-11-30T00:25:00;2.70;99.90
70726;DHT22;58304;53.104;6.022;2022-11-30T00:27:28;2.70;99.90
70726;DHT22;58304;53.104;6.022;2022-11-30T00:29:54;2.60;99.90
70726;DHT22;58304;53.104;6.022;2022-11-30T00:32:20;2.60;99.90
70726;DHT22;58304;53.104;6.022;2022-11-30T00:34:45;2.60;99.90
70726;DHT22;58304;53.104;6.022;2022-11-30T00:37:11;2.70;99.90
70726;DHT22;58304;53.104;6.022;2022-11-30T00:39:36;2.70;99.90
70726;DHT22;58304;53.104;6.022;2022-11-30T00:42:02;2.60;99.90
70726;DHT22;58304;53.104;6.022;2022-11-30T00:44:28;2.70;99.90
70726;DHT22;58304;53.104;6.022;2022-11-30T00:46:53;2.70;99.90
70726;DHT22;58304;53.104;6.022;2022-11-30T00:49:19;2.80;99.90
70726;DHT22;58304;53.104;6.022;2022-11-30T00:51:44;2.80;99.90
70726;DHT22;58304;53.104;6.022;2022-11-30T00:54:10;2.90;99.90
70726;DHT22;58304;53.104;6.022;2022-11-30T00:56:36;2.90;99.90
70726;DHT22;58304;53.104;6.022;2022-11-30T00:59:01;3.00;99.90
70726;DHT22;58304;53.104;6.022;2022-11-30T01:01:27;3.00;99.90
70726;DHT22;58304;53.104;6.022;2022-11-30T01:03:52;3.10;99.90
70726;DHT22;58304;53.104;6.022;2022-11-30T01:06:18;3.10;99.90
70726;DHT22;58304;53.104;6.022;2022-11-30T01:08:43;3.20;99.90
70726;DHT22;58304;53.104;6.022;2022-11-30T01:11:22;3.20;99.90
70726;DHT22;58304;53.104;6.022;2022-11-30T01:13:48;3.20;99.90
70726;DHT22;58304;53.104;6.022;2022-11-30T01:16:17;3.30;99.90
70726;DHT22;58304;53.104;6.022;2022-11-30T01:18:44;3.30;99.90
70726;DHT22;58304;53.104;6.022;2022-11-30T01:21:12;3.30;99.90
70726;DHT22;58304;53.104;6.022;2022-11-30T01:23:39;3.40;99.90
70726;DHT22;58304;53.104;6.022;2022-11-30T01:26:05;3.40;99.90
70726;DHT22;58304;53.104;6.022;2022-11-30T01:28:31;3.40;99.90
70726;DHT22;58304;53.104;6.022;2022-11-30T01:31:02;3.50;99.90
70726;DHT22;58304;53.104;6.022;2022-11-30T01:33:28;3.50;99.90
70726;DHT22;58304;53.104;6.022;2022-11-30T01:35:59;3.60;99.90
70726;DHT22;58304;53.104;6.022;2022-11-30T01:38:25;3.70;99.90
70726;DHT22;58304;53.104;6.022;2022-11-30T01:40:51;3.70;99.90
70726;DHT22;58304;53.104;6.022;2022-11-30T01:43:18;3.80;99.90
70726;DHT22;58304;53.104;6.022;2022-11-30T01:45:44;3.80;99.90
70726;DHT22;58304;53.104;6.022;2022-11-30T01:48:12;3.80;99.90
70726;DHT22;58304;53.104;6.022;2022-11-30T01:50:37;3.90;99.90
70726;DHT22;58304;53.104;6.022;2022-11-30T01:53:03;3.90;99.90
70726;DHT22;58304;53.104;6.022;2022-11-30T01:55:39;4.00;99.90
70726;DHT22;58304;53.104;6.022;2022-11-30T01:58:13;4.00;99.90
70726;DHT22;58304;53.104;6.022;2022-11-30T02:00:43;4.00;99.90
70726;DHT22;58304;53.104;6.022;2022-11-30T02:03:37;4.10;99.90
70726;DHT22;58304;53.104;6.022;2022-11-30T02:06:04;4.10;99.90
70726;DHT22;58304;53.104;6.022;2022-11-30T02:08:30;4.10;99.90
70726;DHT22;58304;53.104;6.022;2022-11-30T02:11:01;4.20;99.90
70726;DHT22;58304;53.104;6.022;2022-11-30T02:21:23;4.30;99.90
70726;DHT22;58304;53.104;6.022;2022-11-30T02:34:31;4.30;99.90
70726;DHT22;58304;53.104;6.022;2022-11-30T02:36:59;4.20;99.90
70726;DHT22;58304;53.104;6.022;2022-11-30T02:39:25;4.20;99.90
70726;DHT22;58304;53.104;6.022;2022-11-30T02:41:51;4.10;99.90
70726;DHT22;58304;53.104;6.022;2022-11-30T02:44:18;4.10;99.90
70726;DHT22;58304;53.104;6.022;2022-11-30T02:49:29;4.00;99.90
70726;DHT22;58304;53.104;6.022;2022-11-30T02:51:57;3.90;99.90
70726;DHT22;58304;53.104;6.022;2022-11-30T02:54:24;3.80;99.90
70726;DHT22;58304;53.104;6.022;2022-11-30T02:56:50;3.80;99.90
70726;DHT22;58304;53.104;6.022;2022-11-30T02:59:15;3.80;99.90
70726;DHT22;58304;53.104;6.022;2022-11-30T03:01:41;3.70;99.90
70726;DHT22;58304;53.104;6.022;2022-11-30T03:04:07;3.70;99.90
70726;DHT22;58304;53.104;6.022;2022-11-30T03:06:32;3.60;99.90
70726;DHT22;58304;53.104;6.022;2022-11-30T03:08:58;3.50;99.90
70726;DHT22;58304;53.104;6.022;2022-11-30T03:11:24;3.40;99.90
70726;DHT22;58304;53.104;6.022;2022-11-30T03:13:50;3.40;99.90
70726;DHT22;58304;53.104;6.022;2022-11-30T03:16:16;3.30;99.90
70726;DHT22;58304;53.104;6.022;2022-11-30T03:18:42;3.30;99.90
70726;DHT22;58304;53.104;6.022;2022-11-30T03:21:09;3.30;99.90
70726;DHT22;58304;53.104;6.022;2022-11-30T03:23:36;3.20;99.90
70726;DHT22;58304;53.104;6.022;2022-11-30T03:26:01;3.20;99.90
70726;DHT22;58304;53.104;6.022;2022-11-30T03:28:27;3.10;99.90
70726;DHT22;58304;53.104;6.022;2022-11-30T03:30:52;3.00;99.90
70726;DHT22;58304;53.104;6.022;2022-11-30T03:33:18;2.90;99.90
70726;DHT22;58304;53.104;6.022;2022-11-30T03:35:44;2.90;99.90
70726;DHT22;58304;53.104;6.022;2022-11-30T03:38:10;2.80;99.90
70726;DHT22;58304;53.104;6.022;2022-11-30T03:40:36;2.70;99.90
70726;DHT22;58304;53.104;6.022;2022-11-30T03:43:02;2.70;99.90
70726;DHT22;58304;53.104;6.022;2022-11-30T03:45:28;2.70;99.90
70726;DHT22;58304;53.104;6.022;2022-11-30T03:47:53;2.60;99.90
70726;DHT22;58304;53.104;6.022;2022-11-30T03:50:19;2.60;99.90
70726;DHT22;58304;53.104;6.022;2022-11-30T03:52:44;2.50;99.90
70726;DHT22;58304;53.104;6.022;2022-11-30T03:55:10;2.60;99.90
70726;DHT22;58304;53.104;6.022;2022-11-30T03:57:35;2.50;99.90
70726;DHT22;58304;53.104;6.022;2022-11-30T04:00:02;2.40;99.90
70726;DHT22;58304;53.104;6.022;2022-11-30T04:02:28;2.40;99.90
70726;DHT22;58304;53.104;6.022;2022-11-30T04:04:54;2.40;99.90
70726;DHT22;58304;53.104;6.022;2022-11-30T04:07:19;2.50;99.90
70726;DHT22;58304;53.104;6.022;2022-11-30T04:09:45;2.40;99.90
70726;DHT22;58304;53.104;6.022;2022-11-30T04:12:10;2.40;99.90
70726;DHT22;58304;53.104;6.022;2022-11-30T04:14:36;2.40;99.90
70726;DHT22;58304;53.104;6.022;2022-11-30T04:17:01;2.40;99.90
70726;DHT22;58304;53.104;6.022;2022-11-30T04:19:27;2.40;99.90
70726;DHT22;58304;53.104;6.022;2022-11-30T04:21:52;2.40;99.90
70726;DHT22;58304;53.104;6.022;2022-11-30T04:24:18;2.40;99.90
70726;DHT22;58304;53.104;6.022;2022-11-30T04:26:43;2.50;99.90
70726;DHT22;58304;53.104;6.022;2022-11-30T04:29:10;2.50;99.90
70726;DHT22;58304;53.104;6.022;2022-11-30T04:31:36;2.50;99.90
70726;DHT22;58304;53.104;6.022;2022-11-30T04:34:01;2.60;99.90
70726;DHT22;58304;53.104;6.022;2022-11-30T04:36:27;2.60;99.90
70726;DHT22;58304;53.104;6.022;2022-11-30T04:38:52;2.60;99.90
70726;DHT22;58304;53.104;6.022;2022-11-30T04:41:18;2.60;99.90
70726;DHT22;58304;53.104;6.022;2022-11-30T04:43:43;2.70;99.90
70726;DHT22;58304;53.104;6.022;2022-11-30T04:46:09;2.70;99.90
70726;DHT22;58304;53.104;6.022;2022-11-30T04:48:35;2.70;99.90
70726;DHT22;58304;53.104;6.022;2022-11-30T04:51:05;2.70;99.90
70726;DHT22;58304;53.104;6.022;2022-11-30T04:53:32;2.80;99.90
70726;DHT22;58304;53.104;6.022;2022-11-30T04:55:58;2.80;99.90
70726;DHT22;58304;53.104;6.022;2022-11-30T04:58:23;2.80;99.90
70726;DHT22;58304;53.104;6.022;2022-11-30T05:00:51;2.80;99.90
70726;DHT22;58304;53.104;6.022;2022-11-30T05:03:17;2.80;99.90
70726;DHT22;58304;53.104;6.022;2022-11-30T05:05:43;2.80;99.90
70726;DHT22;58304;53.104;6.022;2022-11-30T05:08:08;2.70;99.90
70726;DHT22;58304;53.104;6.022;2022-11-30T05:10:34;2.60;99.90
70726;DHT22;58304;53.104;6.022;2022-11-30T05:12:59;2.60;99.90
70726;DHT22;58304;53.104;6.022;2022-11-30T05:15:25;2.60;99.90
70726;DHT22;58304;53.104;6.022;2022-11-30T05:17:51;2.60;99.90
70726;DHT22;58304;53.104;6.022;2022-11-30T05:20:16;2.60;99.90
70726;DHT22;58304;53.104;6.022;2022-11-30T05:22:42;2.70;99.90
70726;DHT22;58304;53.104;6.022;2022-11-30T05:25:08;2.70;99.90
70726;DHT22;58304;53.104;6.022;2022-11-30T05:27:35;2.70;99.90
70726;DHT22;58304;53.104;6.022;2022-11-30T05:30:01;2.70;99.90
70726;DHT22;58304;53.104;6.022;2022-11-30T05:32:26;2.80;99.90
70726;DHT22;58304;53.104;6.022;2022-11-30T05:34:52;2.80;99.90
70726;DHT22;58304;53.104;6.022;2022-11-30T05:37:18;2.90;99.90
70726;DHT22;58304;53.104;6.022;2022-11-30T05:39:43;2.90;99.90
70726;DHT22;58304;53.104;6.022;2022-11-30T05:42:09;3.00;99.90
70726;DHT22;58304;53.104;6.022;2022-11-30T05:44:34;3.00;99.90
70726;DHT22;58304;53.104;6.022;2022-11-30T05:47:00;3.10;99.90
70726;DHT22;58304;53.104;6.022;2022-11-30T05:49:26;3.10;99.90
70726;DHT22;58304;53.104;6.022;2022-11-30T05:51:51;3.20;99.90
70726;DHT22;58304;53.104;6.022;2022-11-30T05:54:17;3.20;99.90
70726;DHT22;58304;53.104;6.022;2022-11-30T05:56:42;3.20;99.90
70726;DHT22;58304;53.104;6.022;2022-11-30T05:59:09;3.30;99.90
70726;DHT22;58304;53.104;6.022;2022-11-30T06:01:35;3.30;99.90
70726;DHT22;58304;53.104;6.022;2022-11-30T06:04:04;3.30;99.90
70726;DHT22;58304;53.104;6.022;2022-11-30T06:06:30;3.30;99.90
70726;DHT22;58304;53.104;6.022;2022-11-30T06:08:55;3.20;99.90
70726;DHT22;58304;53.104;6.022;2022-11-30T06:11:21;3.20;99.90
70726;DHT22;58304;53.104;6.022;2022-11-30T06:13:46;3.20;99.90
70726;DHT22;58304;53.104;6.022;2022-11-30T06:16:12;3.20;99.90
70726;DHT22;58304;53.104;6.022;2022-11-30T06:18:37;3.20;99.90
70726;DHT22;58304;53.104;6.022;2022-11-30T06:21:06;3.30;99.90
70726;DHT22;58304;53.104;6.022;2022-11-30T06:23:32;3.30;99.90
70726;DHT22;58304;53.104;6.022;2022-11-30T06:26:05;3.30;99.90
70726;DHT22;58304;53.104;6.022;2022-11-30T06:28:32;3.40;99.90
70726;DHT22;58304;53.104;6.022;2022-11-30T06:30:58;3.40;99.90
70726;DHT22;58304;53.104;6.022;2022-11-30T06:33:24;3.40;99.90
70726;DHT22;58304;53.104;6.022;2022-11-30T06:35:49;3.50;99.90
70726;DHT22;58304;53.104;6.022;2022-11-30T06:38:15;3.60;99.90
70726;DHT22;58304;53.104;6.022;2022-11-30T06:40:41;3.70;99.90
70726;DHT22;58304;53.104;6.022;2022-11-30T06:43:07;3.60;99.90
70726;DHT22;58304;53.104;6.022;2022-11-30T06:45:32;3.70;99.90
70726;DHT22;58304;53.104;6.022;2022-11-30T06:47:58;3.70;99.90
70726;DHT22;58304;53.104;6.022;2022-11-30T06:50:24;3.70;99.90
70726;DHT22;58304;53.104;6.022;2022-11-30T06:52:49;3.80;99.90
70726;DHT22;58304;53.104;6.022;2022-11-30T06:55:15;3.80;99.90
70726;DHT22;58304;53.104;6.022;2022-11-30T06:57:41;3.80;99.90
70726;DHT22;58304;53.104;6.022;2022-11-30T07:00:07;3.90;99.90
70726;DHT22;58304;53.104;6.022;2022-11-30T07:02:33;3.90;99.90
70726;DHT22;58304;53.104;6.022;2022-11-30T07:04:59;3.90;99.90
70726;DHT22;58304;53.104;6.022;2022-11-30T07:07:24;3.90;99.90
70726;DHT22;58304;53.104;6.022;2022-11-30T07:09:52;4.00;99.90
70726;DHT22;58304;53.104;6.022;2022-11-30T07:12:18;4.10;99.90
70726;DHT22;58304;53.104;6.022;2022-11-30T07:14:43;4.10;99.90
70726;DHT22;58304;53.104;6.022;2022-11-30T07:17:09;4.10;99.90
70726;DHT22;58304;53.104;6.022;2022-11-30T07:19:34;4.10;99.90
70726;DHT22;58304;53.104;6.022;2022-11-30T07:22:00;4.20;99.90
70726;DHT22;58304;53.104;6.022;2022-11-30T07:24:26;4.20;99.90
70726;DHT22;58304;53.104;6.022;2022-11-30T07:27:10;4.20;99.90
70726;DHT22;58304;53.104;6.022;2022-11-30T07:29:35;4.20;99.90
70726;DHT22;58304;53.104;6.022;2022-11-30T07:32:01;4.30;99.90
70726;DHT22;58304;53.104;6.022;2022-11-30T07:34:26;4.30;99.90
70726;DHT22;58304;53.104;6.022;2022-11-30T07:36:52;4.30;99.90
70726;DHT22;58304;53.104;6.022;2022-11-30T07:39:17;4.30;99.90
70726;DHT22;58304;53.104;6.022;2022-11-30T07:41:43;4.30;99.90
70726;DHT22;58304;53.104;6.022;2022-11-30T07:44:09;4.30;99.90
70726;DHT22;58304;53.104;6.022;2022-11-30T07:46:36;4.30;99.90
70726;DHT22;58304;53.104;6.022;2022-11-30T07:49:04;4.40;99.90
70726;DHT22;58304;53.104;6.022;2022-11-30T07:51:30;4.40;99.90
70726;DHT22;58304;53.104;6.022;2022-11-30T07:53:56;4.50;99.90
70726;DHT22;58304;53.104;6.022;2022-11-30T07:56:22;4.50;99.90
70726;DHT22;58304;53.104;6.022;2022-11-30T07:58:50;4.50;99.90
70726;DHT22;58304;53.104;6.022;2022-11-30T08:01:20;4.40;99.90
70726;DHT22;58304;53.104;6.022;2022-11-30T08:03:47;4.40;99.90
70726;DHT22;58304;53.104;6.022;2022-11-30T08:06:16;4.40;99.90
70726;DHT22;58304;53.104;6.022;2022-11-30T08:08:45;4.30;99.90
70726;DHT22;58304;53.104;6.022;2022-11-30T08:11:16;4.20;99.90
70726;DHT22;58304;53.104;6.022;2022-11-30T08:13:42;4.20;99.90
70726;DHT22;58304;53.104;6.022;2022-11-30T08:16:10;4.20;99.90
70726;DHT22;58304;53.104;6.022;2022-11-30T08:18:37;4.20;99.90
70726;DHT22;58304;53.104;6.022;2022-11-30T08:21:05;4.20;99.90
70726;DHT22;58304;53.104;6.022;2022-11-30T08:23:34;4.20;99.90
70726;DHT22;58304;53.104;6.022;2022-11-30T08:26:05;4.20;99.90
70726;DHT22;58304;53.104;6.022;2022-11-30T08:28:33;4.20;99.90
70726;DHT22;58304;53.104;6.022;2022-11-30T08:31:06;4.20;99.90
70726;DHT22;58304;53.104;6.022;2022-11-30T08:33:33;4.30;99.90
70726;DHT22;58304;53.104;6.022;2022-11-30T08:36:10;4.30;99.90
70726;DHT22;58304;53.104;6.022;2022-11-30T08:38:37;4.40;99.90
70726;DHT22;58304;53.104;6.022;2022-11-30T08:41:04;4.40;99.90
70726;DHT22;58304;53.104;6.022;2022-11-30T08:43:30;4.50;99.90
70726;DHT22;58304;53.104;6.022;2022-11-30T08:45:56;4.60;99.90
70726;DHT22;58304;53.104;6.022;2022-11-30T08:48:22;4.70;99.90
70726;DHT22;58304;53.104;6.022;2022-11-30T08:50:47;4.70;99.90
70726;DHT22;58304;53.104;6.022;2022-11-30T08:53:13;4.80;99.90
70726;DHT22;58304;53.104;6.022;2022-11-30T08:55:39;4.80;99.90
70726;DHT22;58304;53.104;6.022;2022-11-30T08:58:05;4.80;99.90
70726;DHT22;58304;53.104;6.022;2022-11-30T09:00:30;4.90;99.90
70726;DHT22;58304;53.104;6.022;2022-11-30T09:02:56;4.90;99.90
70726;DHT22;58304;53.104;6.022;2022-11-30T09:05:21;5.00;99.90
70726;DHT22;58304;53.104;6.022;2022-11-30T09:07:47;5.00;99.90
70726;DHT22;58304;53.104;6.022;2022-11-30T09:10:13;5.00;99.90
70726;DHT22;58304;53.104;6.022;2022-11-30T09:12:39;5.10;99.90
70726;DHT22;58304;53.104;6.022;2022-11-30T09:15:06;5.10;99.90
70726;DHT22;58304;53.104;6.022;2022-11-30T09:17:32;5.10;99.90
70726;DHT22;58304;53.104;6.022;2022-11-30T09:19:58;5.10;99.90
70726;DHT22;58304;53.104;6.022;2022-11-30T09:22:25;5.20;99.90
70726;DHT22;58304;53.104;6.022;2022-11-30T09:24:51;5.20;99.90
70726;DHT22;58304;53.104;6.022;2022-11-30T09:27:16;5.30;99.90
70726;DHT22;58304;53.104;6.022;2022-11-30T09:29:42;5.30;99.90
70726;DHT22;58304;53.104;6.022;2022-11-30T09:32:07;5.30;99.90
70726;DHT22;58304;53.104;6.022;2022-11-30T09:34:33;5.30;99.90
70726;DHT22;58304;53.104;6.022;2022-11-30T09:36:58;5.40;99.90
70726;DHT22;58304;53.104;6.022;2022-11-30T09:39:24;5.40;99.90
70726;DHT22;58304;53.104;6.022;2022-11-30T09:42:06;5.50;99.90
70726;DHT22;58304;53.104;6.022;2022-11-30T09:44:42;5.40;99.90
70726;DHT22;58304;53.104;6.022;2022-11-30T09:49:46;5.60;99.90
70726;DHT22;58304;53.104;6.022;2022-11-30T09:52:32;5.60;99.90
70726;DHT22;58304;53.104;6.022;2022-11-30T09:55:00;5.60;99.90
70726;DHT22;58304;53.104;6.022;2022-11-30T10:00:22;5.80;99.90
70726;DHT22;58304;53.104;6.022;2022-11-30T10:02:49;5.80;99.90
70726;DHT22;58304;53.104;6.022;2022-11-30T10:05:18;5.80;99.90
70726;DHT22;58304;53.104;6.022;2022-11-30T10:11:04;5.90;99.90
70726;DHT22;58304;53.104;6.022;2022-11-30T10:19:02;6.00;99.90
70726;DHT22;58304;53.104;6.022;2022-11-30T10:21:50;6.10;99.90
70726;DHT22;58304;53.104;6.022;2022-11-30T10:24:33;6.10;99.90
70726;DHT22;58304;53.104;6.022;2022-11-30T10:27:10;6.10;99.90
70726;DHT22;58304;53.104;6.022;2022-11-30T10:29:41;6.20;99.90
70726;DHT22;58304;53.104;6.022;2022-11-30T10:32:24;6.20;99.90
70726;DHT22;58304;53.104;6.022;2022-11-30T10:34:54;6.20;99.90
70726;DHT22;58304;53.104;6.022;2022-11-30T10:37:35;6.30;99.90
70726;DHT22;58304;53.104;6.022;2022-11-30T10:40:10;6.30;99.90
70726;DHT22;58304;53.104;6.022;2022-11-30T10:42:41;6.40;99.90
70726;DHT22;58304;53.104;6.022;2022-11-30T10:45:12;6.40;99.90
70726;DHT22;58304;53.104;6.022;2022-11-30T10:48:02;6.50;99.90
70726;DHT22;58304;53.104;6.022;2022-11-30T10:50:30;6.50;99.90
70726;DHT22;58304;53.104;6.022;2022-11-30T10:52:56;6.60;99.90
70726;DHT22;58304;53.104;6.022;2022-11-30T10:55:28;6.70;99.90
70726;DHT22;58304;53.104;6.022;2022-11-30T10:58:01;6.70;99.90
70726;DHT22;58304;53.104;6.022;2022-11-30T11:00:29;6.70;99.90
70726;DHT22;58304;53.104;6.022;2022-11-30T11:02:55;6.70;99.90
70726;DHT22;58304;53.104;6.022;2022-11-30T11:07:52;6.80;99.90
70726;DHT22;58304;53.104;6.022;2022-11-30T11:10:28;6.90;99.90
70726;DHT22;58304;53.104;6.022;2022-11-30T11:12:55;6.90;99.90
70726;DHT22;58304;53.104;6.022;2022-11-30T11:15:26;6.90;99.90
70726;DHT22;58304;53.104;6.022;2022-11-30T11:18:10;7.00;99.90
70726;DHT22;58304;53.104;6.022;2022-11-30T11:20:39;7.00;99.90
70726;DHT22;58304;53.104;6.022;2022-11-30T11:23:33;7.00;99.90
70726;DHT22;58304;53.104;6.022;2022-11-30T11:26:00;7.10;99.90
70726;DHT22;58304;53.104;6.022;2022-11-30T11:28:26;7.10;99.90
70726;DHT22;58304;53.104;6.022;2022-11-30T11:30:53;7.10;99.90
70726;DHT22;58304;53.104;6.022;2022-11-30T11:33:22;7.10;99.90
70726;DHT22;58304;53.104;6.022;2022-11-30T11:35:53;7.10;99.90
70726;DHT22;58304;53.104;6.022;2022-11-30T11:38:23;7.20;99.90
70726;DHT22;58304;53.104;6.022;2022-11-30T11:40:59;7.20;99.90
70726;DHT22;58304;53.104;6.022;2022-11-30T11:43:28;7.20;99.90
70726;DHT22;58304;53.104;6.022;2022-11-30T11:46:00;7.20;99.90
70726;DHT22;58304;53.104;6.022;2022-11-30T11:48:35;7.20;99.90
70726;DHT22;58304;53.104;6.022;2022-11-30T11:51:07;7.30;99.90
70726;DHT22;58304;53.104;6.022;2022-11-30T11:53:36;7.30;99.90
70726;DHT22;58304;53.104;6.022;2022-11-30T11:56:10;7.30;99.90
70726;DHT22;58304;53.104;6.022;2022-11-30T11:58:58;7.30;99.90
70726;DHT22;58304;53.104;6.022;2022-11-30T12:01:45;7.40;99.90
70726;DHT22;58304;53.104;6.022;2022-11-30T12:04:38;7.40;99.90
70726;DHT22;58304;53.104;6.022;2022-11-30T12:10:28;7.40;99.90
70726;DHT22;58304;53.104;6.022;2022-11-30T12:12:57;7.40;99.90
70726;DHT22;58304;53.104;6.022;2022-11-30T12:15:30;7.40;99.90
70726;DHT22;58304;53.104;6.022;2022-11-30T12:20:46;7.50;99.90
70726;DHT22;58304;53.104;6.022;2022-11-30T12:23:18;7.50;99.90
70726;DHT22;58304;53.104;6.022;2022-11-30T12:25:59;7.40;99.90
70726;DHT22;58304;53.104;6.022;2022-11-30T12:31:16;7.40;99.90
70726;DHT22;58304;53.104;6.022;2022-11-30T12:33:53;7.40;99.90
70726;DHT22;58304;53.104;6.022;2022-11-30T12:37:37;7.40;99.90
70726;DHT22;58304;53.104;6.022;2022-11-30T12:39:36;7.30;99.90
70726;DHT22;58304;53.104;6.022;2022-11-30T12:42:13;7.30;99.90
70726;DHT22;58304;53.104;6.022;2022-11-30T12:47:38;7.30;99.90
70726;DHT22;58304;53.104;6.022;2022-11-30T12:50:32;7.30;99.90
70726;DHT22;58304;53.104;6.022;2022-11-30T12:53:26;7.30;99.90
70726;DHT22;58304;53.104;6.022;2022-11-30T13:01:48;7.40;99.90
70726;DHT22;58304;53.104;6.022;2022-11-30T13:09:58;7.40;99.90
70726;DHT22;58304;53.104;6.022;2022-11-30T13:12:28;7.40;99.90
70726;DHT22;58304;53.104;6.022;2022-11-30T13:15:15;7.40;99.90
70726;DHT22;58304;53.104;6.022;2022-11-30T13:17:42;7.30;99.90
70726;DHT22;58304;53.104;6.022;2022-11-30T13:20:41;7.30;99.90
70726;DHT22;58304;53.104;6.022;2022-11-30T13:23:43;7.30;99.90
70726;DHT22;58304;53.104;6.022;2022-11-30T13:29:00;7.20;99.90
70726;DHT22;58304;53.104;6.022;2022-11-30T13:31:41;7.20;99.90
70726;DHT22;58304;53.104;6.022;2022-11-30T13:34:28;7.20;99.90
70726;DHT22;58304;53.104;6.022;2022-11-30T13:37:21;7.20;99.90
70726;DHT22;58304;53.104;6.022;2022-11-30T13:39:49;7.20;99.90
70726;DHT22;58304;53.104;6.022;2022-11-30T13:42:29;7.20;99.90
70726;DHT22;58304;53.104;6.022;2022-11-30T13:44:57;7.20;99.90
70726;DHT22;58304;53.104;6.022;2022-11-30T13:47:34;7.20;99.90
70726;DHT22;58304;53.104;6.022;2022-11-30T13:50:19;7.20;99.90
70726;DHT22;58304;53.104;6.022;2022-11-30T13:58:08;7.10;99.90
70726;DHT22;58304;53.104;6.022;2022-11-30T14:05:53;7.10;99.90
70726;DHT22;58304;53.104;6.022;2022-11-30T14:10:49;7.00;99.90
70726;DHT22;58304;53.104;6.022;2022-11-30T14:20:44;6.90;99.90
70726;DHT22;58304;53.104;6.022;2022-11-30T14:23:13;6.90;99.90
70726;DHT22;58304;53.104;6.022;2022-11-30T14:25:45;6.90;99.90
70726;DHT22;58304;53.104;6.022;2022-11-30T14:28:14;6.90;99.90
70726;DHT22;58304;53.104;6.022;2022-11-30T14:30:42;6.90;99.90
70726;DHT22;58304;53.104;6.022;2022-11-30T14:33:30;6.80;99.90
70726;DHT22;58304;53.104;6.022;2022-11-30T14:36:01;6.80;99.90
70726;DHT22;58304;53.104;6.022;2022-11-30T14:38:29;6.80;99.90
70726;DHT22;58304;53.104;6.022;2022-11-30T14:40:57;6.80;99.90
70726;DHT22;58304;53.104;6.022;2022-11-30T14:43:23;6.80;99.90
70726;DHT22;58304;53.104;6.022;2022-11-30T14:45:58;6.70;99.90
70726;DHT22;58304;53.104;6.022;2022-11-30T14:48:24;6.70;99.90
70726;DHT22;58304;53.104;6.022;2022-11-30T14:50:51;6.70;99.90
70726;DHT22;58304;53.104;6.022;2022-11-30T14:53:35;6.80;99.90
70726;DHT22;58304;53.104;6.022;2022-11-30T15:01:24;6.70;99.90
70726;DHT22;58304;53.104;6.022;2022-11-30T15:03:53;6.60;99.90
70726;DHT22;58304;53.104;6.022;2022-11-30T15:06:25;6.60;99.90
70726;DHT22;58304;53.104;6.022;2022-11-30T15:08:54;6.50;99.90
70726;DHT22;58304;53.104;6.022;2022-11-30T15:11:21;6.50;99.90
70726;DHT22;58304;53.104;6.022;2022-11-30T15:13:48;6.50;99.90
70726;DHT22;58304;53.104;6.022;2022-11-30T15:16:19;6.50;99.90
70726;DHT22;58304;53.104;6.022;2022-11-30T15:18:45;6.50;99.90
70726;DHT22;58304;53.104;6.022;2022-11-30T15:21:15;6.40;99.90
70726;DHT22;58304;53.104;6.022;2022-11-30T15:23:43;6.40;99.90
70726;DHT22;58304;53.104;6.022;2022-11-30T15:26:46;6.40;99.90
70726;DHT22;58304;53.104;6.022;2022-11-30T15:29:19;6.40;99.90
70726;DHT22;58304;53.104;6.022;2022-11-30T15:31:48;6.40;99.90
70726;DHT22;58304;53.104;6.022;2022-11-30T15:34:59;6.40;99.90
70726;DHT22;58304;53.104;6.022;2022-11-30T15:37:29;6.40;99.90
70726;DHT22;58304;53.104;6.022;2022-11-30T15:39:58;6.40;99.90
70726;DHT22;58304;53.104;6.022;2022-11-30T15:42:29;6.40;99.90
70726;DHT22;58304;53.104;6.022;2022-11-30T15:47:36;6.30;99.90
70726;DHT22;58304;53.104;6.022;2022-11-30T15:52:54;6.30;99.90
70726;DHT22;58304;53.104;6.022;2022-11-30T15:55:46;6.30;99.90
70726;DHT22;58304;53.104;6.022;2022-11-30T16:01:10;6.30;99.90
70726;DHT22;58304;53.104;6.022;2022-11-30T16:06:44;6.30;99.90
70726;DHT22;58304;53.104;6.022;2022-11-30T16:09:23;6.30;99.90
70726;DHT22;58304;53.104;6.022;2022-11-30T16:11:52;6.30;99.90
70726;DHT22;58304;53.104;6.022;2022-11-30T16:14:18;6.30;99.90
70726;DHT22;58304;53.104;6.022;2022-11-30T16:16:44;6.30;99.90
70726;DHT22;58304;53.104;6.022;2022-11-30T16:19:09;6.30;99.90
70726;DHT22;58304;53.104;6.022;2022-11-30T16:21:35;6.20;99.90
70726;DHT22;58304;53.104;6.022;2022-11-30T16:24:00;6.30;99.90
70726;DHT22;58304;53.104;6.022;2022-11-30T16:26:26;6.30;99.90
70726;DHT22;58304;53.104;6.022;2022-11-30T16:28:52;6.20;99.90
70726;DHT22;58304;53.104;6.022;2022-11-30T16:31:20;6.20;99.90
70726;DHT22;58304;53.104;6.022;2022-11-30T16:33:47;6.20;99.90
70726;DHT22;58304;53.104;6.022;2022-11-30T16:36:18;6.20;99.90
70726;DHT22;58304;53.104;6.022;2022-11-30T16:38:51;6.20;99.90
70726;DHT22;58304;53.104;6.022;2022-11-30T16:41:27;6.20;99.90
70726;DHT22;58304;53.104;6.022;2022-11-30T16:43:53;6.20;99.90
70726;DHT22;58304;53.104;6.022;2022-11-30T16:46:21;6.20;99.90
70726;DHT22;58304;53.104;6.022;2022-11-30T16:48:47;6.30;99.90
70726;DHT22;58304;53.104;6.022;2022-11-30T16:51:18;6.20;99.90
70726;DHT22;58304;53.104;6.022;2022-11-30T16:53:44;6.20;99.90
70726;DHT22;58304;53.104;6.022;2022-11-30T16:56:10;6.20;99.90
70726;DHT22;58304;53.104;6.022;2022-11-30T16:58:36;6.20;99.90
70726;DHT22;58304;53.104;6.022;2022-11-30T17:01:03;6.10;99.90
70726;DHT22;58304;53.104;6.022;2022-11-30T17:03:30;6.20;99.90
70726;DHT22;58304;53.104;6.022;2022-11-30T17:05:57;6.10;99.90
70726;DHT22;58304;53.104;6.022;2022-11-30T17:08:23;6.20;99.90
70726;DHT22;58304;53.104;6.022;2022-11-30T17:10:50;6.20;99.90
70726;DHT22;58304;53.104;6.022;2022-11-30T17:13:17;6.20;99.90
70726;DHT22;58304;53.104;6.022;2022-11-30T17:15:43;6.20;99.90
70726;DHT22;58304;53.104;6.022;2022-11-30T17:18:09;6.20;99.90
70726;DHT22;58304;53.104;6.022;2022-11-30T17:20:35;6.10;99.90
70726;DHT22;58304;53.104;6.022;2022-11-30T17:23:02;6.10;99.90
70726;DHT22;58304;53.104;6.022;2022-11-30T17:25:27;6.10;99.90
70726;DHT22;58304;53.104;6.022;2022-11-30T17:27:53;6.10;99.90
70726;DHT22;58304;53.104;6.022;2022-11-30T17:30:19;6.10;99.90
70726;DHT22;58304;53.104;6.022;2022-11-30T17:32:46;6.10;99.90
70726;DHT22;58304;53.104;6.022;2022-11-30T17:35:12;6.10;99.90
70726;DHT22;58304;53.104;6.022;2022-11-30T17:37:37;6.10;99.90